sensor_id;sensor_type;location;lat;lon;timestamp;P1;durP1;ratioP1;P2;durP2;ratioP2
61756;SDS011;57225;61.460;24.060;2022-11-02T00:01:38;1.00;;;0.70;;
61756;SDS011;57225;61.460;24.060;2022-11-02T00:04:25;0.68;;;0.68;;
61756;SDS011;57225;61.460;24.060;2022-11-02T00:07:09;0.65;;;0.60;;
61756;SDS011;57225;61.460;24.060;2022-11-02T00:09:54;0.73;;;0.40;;
61756;SDS011;57225;61.460;24.060;2022-11-02T00:12:38;0.47;;;0.47;;
61756;SDS011;57225;61.460;24.060;2022-11-02T00:15:23;0.80;;;0.40;;
61756;SDS011;57225;61.460;24.060;2022-11-02T00:18:10;0.45;;;0.30;;
61756;SDS011;57225;61.460;24.060;2022-11-02T00:20:55;0.70;;;0.40;;
61756;SDS011;57225;61.460;24.060;2022-11-02T00:23:40;0.70;;;0.32;;
61756;SDS011;57225;61.460;24.060;2022-11-02T00:26:25;1.52;;;0.50;;
61756;SDS011;57225;61.460;24.060;2022-11-02T00:29:10;0.57;;;0.43;;
61756;SDS011;57225;61.460;24.060;2022-11-02T00:31:55;0.93;;;0.50;;
61756;SDS011;57225;61.460;24.060;2022-11-02T00:34:39;1.80;;;0.45;;
61756;SDS011;57225;61.460;24.060;2022-11-02T00:37:24;0.35;;;0.28;;
61756;SDS011;57225;61.460;24.060;2022-11-02T00:40:08;0.40;;;0.40;;
61756;SDS011;57225;61.460;24.060;2022-11-02T00:42:53;0.60;;;0.50;;
61756;SDS011;57225;61.460;24.060;2022-11-02T00:45:38;0.40;;;0.30;;
61756;SDS011;57225;61.460;24.060;2022-11-02T00:48:22;0.30;;;0.30;;
61756;SDS011;57225;61.460;24.060;2022-11-02T00:51:06;0.65;;;0.55;;
61756;SDS011;57225;61.460;24.060;2022-11-02T00:53:51;0.30;;;0.30;;
61756;SDS011;57225;61.460;24.060;2022-11-02T00:56:35;0.70;;;0.40;;
61756;SDS011;57225;61.460;24.060;2022-11-02T00:59:21;0.50;;;0.50;;
61756;SDS011;57225;61.460;24.060;2022-11-02T01:02:05;0.75;;;0.50;;
61756;SDS011;57225;61.460;24.060;2022-11-02T01:04:50;0.38;;;0.38;;
61756;SDS011;57225;61.460;24.060;2022-11-02T01:07:34;0.63;;;0.45;;
61756;SDS011;57225;61.460;24.060;2022-11-02T01:10:20;0.40;;;0.32;;
61756;SDS011;57225;61.460;24.060;2022-11-02T01:13:04;1.05;;;0.65;;
61756;SDS011;57225;61.460;24.060;2022-11-02T01:15:49;0.60;;;0.50;;
61756;SDS011;57225;61.460;24.060;2022-11-02T01:18:33;2.75;;;0.70;;
61756;SDS011;57225;61.460;24.060;2022-11-02T01:21:18;0.68;;;0.63;;
61756;SDS011;57225;61.460;24.060;2022-11-02T01:24:02;2.95;;;0.63;;
61756;SDS011;57225;61.460;24.060;2022-11-02T01:26:51;4.45;;;0.60;;
61756;SDS011;57225;61.460;24.060;2022-11-02T01:29:36;10.70;;;1.00;;
61756;SDS011;57225;61.460;24.060;2022-11-02T01:32:20;0.70;;;0.65;;
61756;SDS011;57225;61.460;24.060;2022-11-02T01:35:05;32.75;;;1.92;;
61756;SDS011;57225;61.460;24.060;2022-11-02T01:37:49;1.13;;;0.75;;
61756;SDS011;57225;61.460;24.060;2022-11-02T01:40:37;11.48;;;1.15;;
61756;SDS011;57225;61.460;24.060;2022-11-02T01:43:26;8.02;;;1.10;;
61756;SDS011;57225;61.460;24.060;2022-11-02T01:46:15;4.03;;;0.70;;
61756;SDS011;57225;61.460;24.060;2022-11-02T01:49:11;7.93;;;0.73;;
61756;SDS011;57225;61.460;24.060;2022-11-02T01:52:01;0.77;;;0.75;;
61756;SDS011;57225;61.460;24.060;2022-11-02T01:55:05;1.42;;;1.00;;
61756;SDS011;57225;61.460;24.060;2022-11-02T01:58:00;2.15;;;0.73;;
61756;SDS011;57225;61.460;24.060;2022-11-02T02:00:47;36.45;;;1.40;;
61756;SDS011;57225;61.460;24.060;2022-11-02T02:03:31;122.07;;;3.13;;
61756;SDS011;57225;61.460;24.060;2022-11-02T02:06:18;19.13;;;1.23;;
61756;SDS011;57225;61.460;24.060;2022-11-02T02:09:02;1.83;;;1.00;;
61756;SDS011;57225;61.460;24.060;2022-11-02T02:11:48;1.10;;;1.00;;
61756;SDS011;57225;61.460;24.060;2022-11-02T02:14:33;1.25;;;0.90;;
61756;SDS011;57225;61.460;24.060;2022-11-02T02:17:38;6.97;;;1.55;;
61756;SDS011;57225;61.460;24.060;2022-11-02T02:20:38;72.20;;;2.45;;
61756;SDS011;57225;61.460;24.060;2022-11-02T02:30:04;7.15;;;1.75;;
61756;SDS011;57225;61.460;24.060;2022-11-02T02:35:46;16.83;;;2.33;;
61756;SDS011;57225;61.460;24.060;2022-11-02T02:39:31;2.63;;;2.00;;
61756;SDS011;57225;61.460;24.060;2022-11-02T02:42:00;3.70;;;1.92;;
61756;SDS011;57225;61.460;24.060;2022-11-02T02:45:05;8.07;;;2.38;;
61756;SDS011;57225;61.460;24.060;2022-11-02T02:48:19;17.05;;;2.65;;
61756;SDS011;57225;61.460;24.060;2022-11-02T02:51:13;2.50;;;1.98;;
61756;SDS011;57225;61.460;24.060;2022-11-02T02:54:20;2.53;;;1.90;;
61756;SDS011;57225;61.460;24.060;2022-11-02T02:57:10;22.38;;;2.30;;
61756;SDS011;57225;61.460;24.060;2022-11-02T02:59:57;14.18;;;2.42;;
61756;SDS011;57225;61.460;24.060;2022-11-02T03:02:42;2.60;;;2.00;;
61756;SDS011;57225;61.460;24.060;2022-11-02T03:05:52;9.20;;;2.13;;
61756;SDS011;57225;61.460;24.060;2022-11-02T03:09:01;3.45;;;2.20;;
61756;SDS011;57225;61.460;24.060;2022-11-02T03:18:12;3.97;;;2.00;;
61756;SDS011;57225;61.460;24.060;2022-11-02T03:28:04;4.38;;;2.42;;
61756;SDS011;57225;61.460;24.060;2022-11-02T03:30:36;8.75;;;1.90;;
61756;SDS011;57225;61.460;24.060;2022-11-02T03:33:32;2.08;;;1.30;;
61756;SDS011;57225;61.460;24.060;2022-11-02T03:36:33;2.22;;;1.48;;
61756;SDS011;57225;61.460;24.060;2022-11-02T03:39:35;6.28;;;1.70;;
61756;SDS011;57225;61.460;24.060;2022-11-02T03:42:24;2.25;;;1.45;;
61756;SDS011;57225;61.460;24.060;2022-11-02T03:45:20;2.28;;;1.25;;
61756;SDS011;57225;61.460;24.060;2022-11-02T03:48:07;1.90;;;1.35;;
61756;SDS011;57225;61.460;24.060;2022-11-02T03:50:54;2.22;;;1.50;;
61756;SDS011;57225;61.460;24.060;2022-11-02T03:53:44;3.15;;;1.75;;
61756;SDS011;57225;61.460;24.060;2022-11-02T03:59:38;5.03;;;1.83;;
61756;SDS011;57225;61.460;24.060;2022-11-02T04:02:22;2.22;;;1.40;;
61756;SDS011;57225;61.460;24.060;2022-11-02T04:05:07;6.90;;;1.40;;
61756;SDS011;57225;61.460;24.060;2022-11-02T04:07:51;6.05;;;1.38;;
61756;SDS011;57225;61.460;24.060;2022-11-02T04:10:57;5.63;;;1.02;;
61756;SDS011;57225;61.460;24.060;2022-11-02T04:14:00;7.45;;;1.02;;
61756;SDS011;57225;61.460;24.060;2022-11-02T04:17:06;4.00;;;1.05;;
61756;SDS011;57225;61.460;24.060;2022-11-02T04:20:11;4.22;;;0.90;;
61756;SDS011;57225;61.460;24.060;2022-11-02T04:22:55;6.43;;;1.20;;
61756;SDS011;57225;61.460;24.060;2022-11-02T04:25:58;11.68;;;1.20;;
61756;SDS011;57225;61.460;24.060;2022-11-02T04:28:43;1.33;;;1.00;;
61756;SDS011;57225;61.460;24.060;2022-11-02T04:31:27;1.30;;;1.00;;
61756;SDS011;57225;61.460;24.060;2022-11-02T04:34:12;1.20;;;0.68;;
61756;SDS011;57225;61.460;24.060;2022-11-02T04:36:56;1.23;;;0.63;;
61756;SDS011;57225;61.460;24.060;2022-11-02T04:39:41;0.70;;;0.70;;
61756;SDS011;57225;61.460;24.060;2022-11-02T04:42:25;1.45;;;0.90;;
61756;SDS011;57225;61.460;24.060;2022-11-02T04:45:10;1.20;;;0.90;;
61756;SDS011;57225;61.460;24.060;2022-11-02T04:48:07;1.20;;;1.00;;
61756;SDS011;57225;61.460;24.060;2022-11-02T04:50:52;1.33;;;0.98;;
61756;SDS011;57225;61.460;24.060;2022-11-02T04:53:36;1.60;;;1.10;;
61756;SDS011;57225;61.460;24.060;2022-11-02T04:56:21;2.40;;;1.27;;
61756;SDS011;57225;61.460;24.060;2022-11-02T04:59:06;2.97;;;1.40;;
61756;SDS011;57225;61.460;24.060;2022-11-02T05:01:50;1.95;;;1.23;;
61756;SDS011;57225;61.460;24.060;2022-11-02T05:04:35;2.05;;;0.70;;
61756;SDS011;57225;61.460;24.060;2022-11-02T05:07:19;1.23;;;0.70;;
61756;SDS011;57225;61.460;24.060;2022-11-02T05:10:04;2.15;;;0.90;;
61756;SDS011;57225;61.460;24.060;2022-11-02T05:12:54;1.17;;;0.73;;
61756;SDS011;57225;61.460;24.060;2022-11-02T05:15:40;0.93;;;0.75;;
61756;SDS011;57225;61.460;24.060;2022-11-02T05:18:25;0.88;;;0.80;;
61756;SDS011;57225;61.460;24.060;2022-11-02T05:21:11;1.50;;;0.88;;
61756;SDS011;57225;61.460;24.060;2022-11-02T05:23:55;1.55;;;0.50;;
61756;SDS011;57225;61.460;24.060;2022-11-02T05:26:39;0.70;;;0.50;;
61756;SDS011;57225;61.460;24.060;2022-11-02T05:29:24;1.65;;;0.68;;
61756;SDS011;57225;61.460;24.060;2022-11-02T05:32:08;0.88;;;0.70;;
61756;SDS011;57225;61.460;24.060;2022-11-02T05:34:52;2.03;;;0.60;;
61756;SDS011;57225;61.460;24.060;2022-11-02T05:37:37;3.42;;;0.90;;
61756;SDS011;57225;61.460;24.060;2022-11-02T05:40:21;5.07;;;1.13;;
61756;SDS011;57225;61.460;24.060;2022-11-02T05:43:07;4.68;;;0.95;;
61756;SDS011;57225;61.460;24.060;2022-11-02T05:45:53;8.63;;;1.52;;
61756;SDS011;57225;61.460;24.060;2022-11-02T05:48:39;5.90;;;1.20;;
61756;SDS011;57225;61.460;24.060;2022-11-02T05:51:24;5.28;;;1.45;;
61756;SDS011;57225;61.460;24.060;2022-11-02T05:54:08;2.30;;;1.17;;
61756;SDS011;57225;61.460;24.060;2022-11-02T05:56:52;1.48;;;1.27;;
61756;SDS011;57225;61.460;24.060;2022-11-02T05:59:37;3.67;;;1.00;;
61756;SDS011;57225;61.460;24.060;2022-11-02T06:02:21;1.88;;;1.25;;
61756;SDS011;57225;61.460;24.060;2022-11-02T06:05:06;1.70;;;1.40;;
61756;SDS011;57225;61.460;24.060;2022-11-02T06:07:51;3.85;;;1.77;;
61756;SDS011;57225;61.460;24.060;2022-11-02T06:10:35;1.50;;;1.20;;
61756;SDS011;57225;61.460;24.060;2022-11-02T06:13:20;1.70;;;1.20;;
61756;SDS011;57225;61.460;24.060;2022-11-02T06:16:05;2.05;;;1.20;;
61756;SDS011;57225;61.460;24.060;2022-11-02T06:18:52;2.35;;;1.00;;
61756;SDS011;57225;61.460;24.060;2022-11-02T06:21:37;3.42;;;1.40;;
61756;SDS011;57225;61.460;24.060;2022-11-02T06:24:21;2.25;;;1.10;;
61756;SDS011;57225;61.460;24.060;2022-11-02T06:27:06;1.65;;;1.35;;
61756;SDS011;57225;61.460;24.060;2022-11-02T06:29:51;2.28;;;1.40;;
61756;SDS011;57225;61.460;24.060;2022-11-02T06:32:35;1.50;;;1.30;;
61756;SDS011;57225;61.460;24.060;2022-11-02T06:35:21;1.95;;;1.50;;
61756;SDS011;57225;61.460;24.060;2022-11-02T06:38:05;3.47;;;1.98;;
61756;SDS011;57225;61.460;24.060;2022-11-02T06:40:55;1.48;;;1.15;;
61756;SDS011;57225;61.460;24.060;2022-11-02T06:43:41;1.30;;;0.82;;
61756;SDS011;57225;61.460;24.060;2022-11-02T06:46:26;0.60;;;0.50;;
61756;SDS011;57225;61.460;24.060;2022-11-02T06:49:10;0.70;;;0.52;;
61756;SDS011;57225;61.460;24.060;2022-11-02T06:51:54;0.68;;;0.57;;
61756;SDS011;57225;61.460;24.060;2022-11-02T06:54:39;0.30;;;0.30;;
61756;SDS011;57225;61.460;24.060;2022-11-02T06:57:24;0.73;;;0.40;;
61756;SDS011;57225;61.460;24.060;2022-11-02T07:00:09;1.85;;;0.32;;
61756;SDS011;57225;61.460;24.060;2022-11-02T07:02:59;0.70;;;0.60;;
61756;SDS011;57225;61.460;24.060;2022-11-02T07:05:48;0.43;;;0.30;;
61756;SDS011;57225;61.460;24.060;2022-11-02T07:08:35;0.75;;;0.30;;
61756;SDS011;57225;61.460;24.060;2022-11-02T07:11:21;0.35;;;0.20;;
61756;SDS011;57225;61.460;24.060;2022-11-02T07:14:05;0.60;;;0.38;;
61756;SDS011;57225;61.460;24.060;2022-11-02T07:16:49;0.45;;;0.30;;
61756;SDS011;57225;61.460;24.060;2022-11-02T07:19:34;1.00;;;0.55;;
61756;SDS011;57225;61.460;24.060;2022-11-02T07:22:19;1.77;;;0.43;;
61756;SDS011;57225;61.460;24.060;2022-11-02T07:25:03;0.55;;;0.40;;
61756;SDS011;57225;61.460;24.060;2022-11-02T07:27:48;0.52;;;0.52;;
61756;SDS011;57225;61.460;24.060;2022-11-02T07:30:33;0.98;;;0.73;;
61756;SDS011;57225;61.460;24.060;2022-11-02T07:33:17;1.25;;;0.93;;
61756;SDS011;57225;61.460;24.060;2022-11-02T07:36:02;1.10;;;0.70;;
61756;SDS011;57225;61.460;24.060;2022-11-02T07:38:48;1.55;;;0.90;;
61756;SDS011;57225;61.460;24.060;2022-11-02T07:41:32;2.50;;;1.00;;
61756;SDS011;57225;61.460;24.060;2022-11-02T07:44:17;5.20;;;1.50;;
61756;SDS011;57225;61.460;24.060;2022-11-02T07:47:02;0.80;;;0.60;;
61756;SDS011;57225;61.460;24.060;2022-11-02T07:49:46;1.48;;;0.90;;
61756;SDS011;57225;61.460;24.060;2022-11-02T07:52:31;1.10;;;0.80;;
61756;SDS011;57225;61.460;24.060;2022-11-02T07:55:16;1.75;;;0.70;;
61756;SDS011;57225;61.460;24.060;2022-11-02T07:58:03;0.70;;;0.60;;
61756;SDS011;57225;61.460;24.060;2022-11-02T08:00:50;0.82;;;0.70;;
61756;SDS011;57225;61.460;24.060;2022-11-02T08:03:34;0.90;;;0.70;;
61756;SDS011;57225;61.460;24.060;2022-11-02T08:06:19;2.28;;;0.60;;
61756;SDS011;57225;61.460;24.060;2022-11-02T08:09:03;1.48;;;0.80;;
61756;SDS011;57225;61.460;24.060;2022-11-02T08:11:47;1.75;;;0.90;;
61756;SDS011;57225;61.460;24.060;2022-11-02T08:14:32;0.82;;;0.77;;
61756;SDS011;57225;61.460;24.060;2022-11-02T08:17:16;3.45;;;0.82;;
61756;SDS011;57225;61.460;24.060;2022-11-02T08:20:01;1.20;;;0.95;;
61756;SDS011;57225;61.460;24.060;2022-11-02T08:22:45;25.10;;;11.82;;
61756;SDS011;57225;61.460;24.060;2022-11-02T08:25:29;9.52;;;5.55;;
61756;SDS011;57225;61.460;24.060;2022-11-02T08:28:19;7.05;;;2.97;;
61756;SDS011;57225;61.460;24.060;2022-11-02T08:31:05;1.95;;;1.17;;
61756;SDS011;57225;61.460;24.060;2022-11-02T08:33:56;1.98;;;1.17;;
61756;SDS011;57225;61.460;24.060;2022-11-02T08:36:41;1.38;;;0.88;;
61756;SDS011;57225;61.460;24.060;2022-11-02T08:39:26;0.68;;;0.60;;
61756;SDS011;57225;61.460;24.060;2022-11-02T08:42:10;0.68;;;0.55;;
61756;SDS011;57225;61.460;24.060;2022-11-02T08:44:55;0.70;;;0.60;;
61756;SDS011;57225;61.460;24.060;2022-11-02T08:47:39;2.83;;;1.60;;
61756;SDS011;57225;61.460;24.060;2022-11-02T08:50:24;25.17;;;11.05;;
61756;SDS011;57225;61.460;24.060;2022-11-02T08:53:09;7.07;;;3.45;;
61756;SDS011;57225;61.460;24.060;2022-11-02T08:55:57;3.65;;;2.17;;
61756;SDS011;57225;61.460;24.060;2022-11-02T08:58:41;2.80;;;1.60;;
61756;SDS011;57225;61.460;24.060;2022-11-02T09:01:26;0.75;;;0.63;;
61756;SDS011;57225;61.460;24.060;2022-11-02T09:04:10;2.08;;;0.88;;
61756;SDS011;57225;61.460;24.060;2022-11-02T09:06:54;2.90;;;1.40;;
61756;SDS011;57225;61.460;24.060;2022-11-02T09:09:39;1.05;;;0.70;;
61756;SDS011;57225;61.460;24.060;2022-11-02T09:12:23;1.15;;;0.70;;
61756;SDS011;57225;61.460;24.060;2022-11-02T09:15:08;0.75;;;0.52;;
61756;SDS011;57225;61.460;24.060;2022-11-02T09:17:53;1.55;;;0.60;;
61756;SDS011;57225;61.460;24.060;2022-11-02T09:20:38;0.40;;;0.30;;
61756;SDS011;57225;61.460;24.060;2022-11-02T09:23:22;0.70;;;0.30;;
61756;SDS011;57225;61.460;24.060;2022-11-02T09:26:06;0.68;;;0.55;;
61756;SDS011;57225;61.460;24.060;2022-11-02T09:28:51;1.05;;;0.80;;
61756;SDS011;57225;61.460;24.060;2022-11-02T09:31:35;0.63;;;0.60;;
61756;SDS011;57225;61.460;24.060;2022-11-02T09:34:19;1.60;;;1.05;;
61756;SDS011;57225;61.460;24.060;2022-11-02T09:37:04;0.65;;;0.65;;
61756;SDS011;57225;61.460;24.060;2022-11-02T09:39:48;0.75;;;0.50;;
61756;SDS011;57225;61.460;24.060;2022-11-02T09:42:37;1.15;;;0.55;;
61756;SDS011;57225;61.460;24.060;2022-11-02T09:45:23;0.80;;;0.60;;
61756;SDS011;57225;61.460;24.060;2022-11-02T09:48:15;1.13;;;0.60;;
61756;SDS011;57225;61.460;24.060;2022-11-02T09:56:55;1.73;;;1.15;;
61756;SDS011;57225;61.460;24.060;2022-11-02T09:59:44;1.80;;;0.85;;
61756;SDS011;57225;61.460;24.060;2022-11-02T10:09:21;1.58;;;0.65;;
61756;SDS011;57225;61.460;24.060;2022-11-02T10:13:05;0.40;;;0.40;;
61756;SDS011;57225;61.460;24.060;2022-11-02T10:16:14;0.60;;;0.45;;
61756;SDS011;57225;61.460;24.060;2022-11-02T10:18:42;2.15;;;0.60;;
61756;SDS011;57225;61.460;24.060;2022-11-02T10:21:32;0.60;;;0.50;;
61756;SDS011;57225;61.460;24.060;2022-11-02T10:24:25;1.00;;;0.68;;
61756;SDS011;57225;61.460;24.060;2022-11-02T10:27:20;0.85;;;0.45;;
61756;SDS011;57225;61.460;24.060;2022-11-02T10:30:12;2.17;;;0.70;;
61756;SDS011;57225;61.460;24.060;2022-11-02T10:32:58;3.63;;;2.35;;
61756;SDS011;57225;61.460;24.060;2022-11-02T10:39:00;1.42;;;1.33;;
61756;SDS011;57225;61.460;24.060;2022-11-02T10:51:38;1.58;;;1.20;;
61756;SDS011;57225;61.460;24.060;2022-11-02T10:54:23;0.63;;;0.63;;
61756;SDS011;57225;61.460;24.060;2022-11-02T10:57:13;3.40;;;3.10;;
61756;SDS011;57225;61.460;24.060;2022-11-02T11:03:12;0.77;;;0.73;;
61756;SDS011;57225;61.460;24.060;2022-11-02T11:05:59;0.63;;;0.60;;
61756;SDS011;57225;61.460;24.060;2022-11-02T11:08:45;0.65;;;0.60;;
61756;SDS011;57225;61.460;24.060;2022-11-02T11:11:33;1.02;;;0.70;;
61756;SDS011;57225;61.460;24.060;2022-11-02T11:14:20;20.38;;;11.90;;
61756;SDS011;57225;61.460;24.060;2022-11-02T11:17:12;2.38;;;1.83;;
61756;SDS011;57225;61.460;24.060;2022-11-02T11:20:00;2.10;;;1.90;;
61756;SDS011;57225;61.460;24.060;2022-11-02T11:22:47;0.82;;;0.63;;
61756;SDS011;57225;61.460;24.060;2022-11-02T11:26:02;2.03;;;1.17;;
61756;SDS011;57225;61.460;24.060;2022-11-02T11:28:51;8.38;;;3.90;;
61756;SDS011;57225;61.460;24.060;2022-11-02T11:34:25;19.65;;;8.40;;
61756;SDS011;57225;61.460;24.060;2022-11-02T11:37:13;11.77;;;4.95;;
61756;SDS011;57225;61.460;24.060;2022-11-02T11:40:00;1.65;;;1.00;;
61756;SDS011;57225;61.460;24.060;2022-11-02T11:42:49;0.80;;;0.70;;
61756;SDS011;57225;61.460;24.060;2022-11-02T11:45:37;5.40;;;3.92;;
61756;SDS011;57225;61.460;24.060;2022-11-02T11:51:26;9.98;;;5.60;;
61756;SDS011;57225;61.460;24.060;2022-11-02T11:54:24;4.07;;;1.20;;
61756;SDS011;57225;61.460;24.060;2022-11-02T11:57:43;2.30;;;1.17;;
61756;SDS011;57225;61.460;24.060;2022-11-02T12:00:24;1.08;;;0.88;;
61756;SDS011;57225;61.460;24.060;2022-11-02T12:03:11;1.67;;;1.40;;
61756;SDS011;57225;61.460;24.060;2022-11-02T12:06:06;1.20;;;0.90;;
61756;SDS011;57225;61.460;24.060;2022-11-02T12:09:14;3.50;;;1.20;;
61756;SDS011;57225;61.460;24.060;2022-11-02T12:15:43;4.53;;;1.52;;
61756;SDS011;57225;61.460;24.060;2022-11-02T12:21:42;3.25;;;1.60;;
61756;SDS011;57225;61.460;24.060;2022-11-02T12:36:37;3.13;;;2.33;;
61756;SDS011;57225;61.460;24.060;2022-11-02T12:39:46;4.95;;;2.00;;
61756;SDS011;57225;61.460;24.060;2022-11-02T12:42:41;2.83;;;2.03;;
61756;SDS011;57225;61.460;24.060;2022-11-02T12:45:56;3.83;;;2.88;;
61756;SDS011;57225;61.460;24.060;2022-11-02T12:55:02;6.78;;;3.92;;
61756;SDS011;57225;61.460;24.060;2022-11-02T12:57:57;3.30;;;2.15;;
61756;SDS011;57225;61.460;24.060;2022-11-02T13:01:06;2.70;;;1.77;;
61756;SDS011;57225;61.460;24.060;2022-11-02T13:06:45;2.10;;;1.85;;
61756;SDS011;57225;61.460;24.060;2022-11-02T13:09:34;2.97;;;2.22;;
61756;SDS011;57225;61.460;24.060;2022-11-02T13:12:21;2.63;;;2.03;;
61756;SDS011;57225;61.460;24.060;2022-11-02T13:15:11;10.23;;;2.47;;
61756;SDS011;57225;61.460;24.060;2022-11-02T13:18:10;3.13;;;2.60;;
61756;SDS011;57225;61.460;24.060;2022-11-02T13:21:16;3.38;;;2.80;;
61756;SDS011;57225;61.460;24.060;2022-11-02T13:24:05;18.40;;;3.10;;
61756;SDS011;57225;61.460;24.060;2022-11-02T13:26:55;99.78;;;4.63;;
61756;SDS011;57225;61.460;24.060;2022-11-02T13:29:48;3.35;;;2.70;;
61756;SDS011;57225;61.460;24.060;2022-11-02T13:32:37;5.80;;;2.90;;
61756;SDS011;57225;61.460;24.060;2022-11-02T13:35:33;135.65;;;5.10;;
61756;SDS011;57225;61.460;24.060;2022-11-02T13:38:28;23.95;;;3.30;;
61756;SDS011;57225;61.460;24.060;2022-11-02T13:47:57;12.77;;;3.45;;
61756;SDS011;57225;61.460;24.060;2022-11-02T13:50:59;6.28;;;3.20;;
61756;SDS011;57225;61.460;24.060;2022-11-02T13:53:52;5.85;;;3.28;;
61756;SDS011;57225;61.460;24.060;2022-11-02T13:56:41;6.95;;;3.63;;
61756;SDS011;57225;61.460;24.060;2022-11-02T13:59:33;12.23;;;4.30;;
61756;SDS011;57225;61.460;24.060;2022-11-02T14:02:22;4.97;;;3.17;;
61756;SDS011;57225;61.460;24.060;2022-11-02T14:05:08;7.50;;;3.90;;
61756;SDS011;57225;61.460;24.060;2022-11-02T14:08:05;7.15;;;3.78;;
61756;SDS011;57225;61.460;24.060;2022-11-02T14:14:19;5.10;;;3.60;;
61756;SDS011;57225;61.460;24.060;2022-11-02T14:17:12;4.82;;;3.42;;
61756;SDS011;57225;61.460;24.060;2022-11-02T14:19:58;4.38;;;3.10;;
61756;SDS011;57225;61.460;24.060;2022-11-02T14:25:57;5.55;;;3.42;;
61756;SDS011;57225;61.460;24.060;2022-11-02T14:28:41;7.53;;;3.40;;
61756;SDS011;57225;61.460;24.060;2022-11-02T14:31:49;5.43;;;3.55;;
61756;SDS011;57225;61.460;24.060;2022-11-02T14:34:45;5.60;;;3.53;;
61756;SDS011;57225;61.460;24.060;2022-11-02T14:45:01;17.80;;;4.80;;
61756;SDS011;57225;61.460;24.060;2022-11-02T14:48:10;6.30;;;4.47;;
61756;SDS011;57225;61.460;24.060;2022-11-02T14:50:59;7.72;;;4.80;;
61756;SDS011;57225;61.460;24.060;2022-11-02T14:53:57;12.38;;;4.55;;
61756;SDS011;57225;61.460;24.060;2022-11-02T14:56:57;8.40;;;5.10;;
61756;SDS011;57225;61.460;24.060;2022-11-02T14:59:49;10.50;;;4.30;;
61756;SDS011;57225;61.460;24.060;2022-11-02T15:02:37;7.07;;;4.53;;
61756;SDS011;57225;61.460;24.060;2022-11-02T15:05:25;12.43;;;4.55;;
61756;SDS011;57225;61.460;24.060;2022-11-02T15:08:23;8.20;;;4.47;;
61756;SDS011;57225;61.460;24.060;2022-11-02T15:26:08;13.65;;;5.65;;
61756;SDS011;57225;61.460;24.060;2022-11-02T15:28:57;8.65;;;5.45;;
61756;SDS011;57225;61.460;24.060;2022-11-02T15:31:47;10.37;;;5.53;;
61756;SDS011;57225;61.460;24.060;2022-11-02T15:34:46;15.38;;;6.20;;
61756;SDS011;57225;61.460;24.060;2022-11-02T15:37:32;12.18;;;6.25;;
61756;SDS011;57225;61.460;24.060;2022-11-02T15:40:21;12.48;;;6.47;;
61756;SDS011;57225;61.460;24.060;2022-11-02T15:46:04;14.60;;;6.50;;
61756;SDS011;57225;61.460;24.060;2022-11-02T15:48:56;13.60;;;7.07;;
61756;SDS011;57225;61.460;24.060;2022-11-02T15:52:19;14.40;;;7.00;;
61756;SDS011;57225;61.460;24.060;2022-11-02T15:55:23;13.15;;;7.28;;
61756;SDS011;57225;61.460;24.060;2022-11-02T15:58:43;11.88;;;6.68;;
61756;SDS011;57225;61.460;24.060;2022-11-02T16:01:25;14.68;;;7.25;;
61756;SDS011;57225;61.460;24.060;2022-11-02T16:04:16;13.13;;;7.00;;
61756;SDS011;57225;61.460;24.060;2022-11-02T16:07:03;13.23;;;7.05;;
61756;SDS011;57225;61.460;24.060;2022-11-02T16:09:49;13.45;;;7.07;;
61756;SDS011;57225;61.460;24.060;2022-11-02T16:12:34;14.93;;;7.53;;
61756;SDS011;57225;61.460;24.060;2022-11-02T16:15:18;14.85;;;7.18;;
61756;SDS011;57225;61.460;24.060;2022-11-02T16:18:03;16.08;;;7.32;;
61756;SDS011;57225;61.460;24.060;2022-11-02T16:20:47;13.00;;;6.63;;
61756;SDS011;57225;61.460;24.060;2022-11-02T16:23:32;13.45;;;7.22;;
61756;SDS011;57225;61.460;24.060;2022-11-02T16:26:19;13.80;;;6.75;;
61756;SDS011;57225;61.460;24.060;2022-11-02T16:29:06;14.35;;;7.88;;
61756;SDS011;57225;61.460;24.060;2022-11-02T16:31:52;11.52;;;6.88;;
61756;SDS011;57225;61.460;24.060;2022-11-02T16:34:37;11.85;;;7.13;;
61756;SDS011;57225;61.460;24.060;2022-11-02T16:37:23;13.55;;;7.45;;
61756;SDS011;57225;61.460;24.060;2022-11-02T16:40:12;14.68;;;7.85;;
61756;SDS011;57225;61.460;24.060;2022-11-02T16:42:59;17.00;;;8.50;;
61756;SDS011;57225;61.460;24.060;2022-11-02T16:45:44;15.48;;;8.13;;
61756;SDS011;57225;61.460;24.060;2022-11-02T16:48:33;18.10;;;9.23;;
61756;SDS011;57225;61.460;24.060;2022-11-02T16:51:18;21.40;;;10.35;;
61756;SDS011;57225;61.460;24.060;2022-11-02T16:54:15;16.75;;;9.45;;
61756;SDS011;57225;61.460;24.060;2022-11-02T16:57:11;18.60;;;9.73;;
61756;SDS011;57225;61.460;24.060;2022-11-02T16:59:59;17.05;;;8.75;;
61756;SDS011;57225;61.460;24.060;2022-11-02T17:05:31;17.08;;;9.23;;
61756;SDS011;57225;61.460;24.060;2022-11-02T17:08:35;18.23;;;8.98;;
61756;SDS011;57225;61.460;24.060;2022-11-02T17:11:22;16.65;;;8.70;;
61756;SDS011;57225;61.460;24.060;2022-11-02T17:14:07;17.95;;;9.35;;
61756;SDS011;57225;61.460;24.060;2022-11-02T17:17:04;20.50;;;9.32;;
61756;SDS011;57225;61.460;24.060;2022-11-02T17:25:43;18.27;;;9.38;;
61756;SDS011;57225;61.460;24.060;2022-11-02T17:34:07;20.55;;;9.02;;
61756;SDS011;57225;61.460;24.060;2022-11-02T17:36:58;22.42;;;9.70;;
61756;SDS011;57225;61.460;24.060;2022-11-02T17:39:42;23.10;;;9.30;;
61756;SDS011;57225;61.460;24.060;2022-11-02T17:42:27;17.60;;;9.27;;
61756;SDS011;57225;61.460;24.060;2022-11-02T17:45:32;17.10;;;8.65;;
61756;SDS011;57225;61.460;24.060;2022-11-02T17:48:19;17.40;;;9.35;;
61756;SDS011;57225;61.460;24.060;2022-11-02T17:51:04;22.08;;;9.02;;
61756;SDS011;57225;61.460;24.060;2022-11-02T17:53:53;15.82;;;8.65;;
61756;SDS011;57225;61.460;24.060;2022-11-02T17:56:38;18.13;;;9.13;;
61756;SDS011;57225;61.460;24.060;2022-11-02T17:59:23;18.10;;;8.80;;
61756;SDS011;57225;61.460;24.060;2022-11-02T18:02:09;17.90;;;9.40;;
61756;SDS011;57225;61.460;24.060;2022-11-02T18:04:55;18.40;;;9.00;;
61756;SDS011;57225;61.460;24.060;2022-11-02T18:07:40;20.38;;;9.25;;
61756;SDS011;57225;61.460;24.060;2022-11-02T18:10:26;17.38;;;9.32;;
61756;SDS011;57225;61.460;24.060;2022-11-02T18:15:59;14.75;;;8.35;;
61756;SDS011;57225;61.460;24.060;2022-11-02T18:18:43;17.63;;;9.55;;
61756;SDS011;57225;61.460;24.060;2022-11-02T18:21:27;19.15;;;8.93;;
61756;SDS011;57225;61.460;24.060;2022-11-02T18:24:12;18.88;;;9.40;;
61756;SDS011;57225;61.460;24.060;2022-11-02T18:26:56;21.92;;;8.95;;
61756;SDS011;57225;61.460;24.060;2022-11-02T18:29:41;19.00;;;9.55;;
61756;SDS011;57225;61.460;24.060;2022-11-02T18:32:25;16.35;;;9.10;;
61756;SDS011;57225;61.460;24.060;2022-11-02T18:35:10;18.65;;;8.75;;
61756;SDS011;57225;61.460;24.060;2022-11-02T18:37:57;17.70;;;9.52;;
61756;SDS011;57225;61.460;24.060;2022-11-02T18:40:41;15.32;;;8.98;;
61756;SDS011;57225;61.460;24.060;2022-11-02T18:43:26;15.55;;;8.23;;
61756;SDS011;57225;61.460;24.060;2022-11-02T18:46:10;14.63;;;7.82;;
61756;SDS011;57225;61.460;24.060;2022-11-02T18:48:55;18.48;;;8.55;;
61756;SDS011;57225;61.460;24.060;2022-11-02T18:51:39;12.68;;;7.53;;
61756;SDS011;57225;61.460;24.060;2022-11-02T18:54:26;10.80;;;6.85;;
61756;SDS011;57225;61.460;24.060;2022-11-02T18:57:10;16.10;;;8.60;;
61756;SDS011;57225;61.460;24.060;2022-11-02T18:59:55;13.60;;;7.80;;
61756;SDS011;57225;61.460;24.060;2022-11-02T19:02:39;15.13;;;8.10;;